»·PEaware :: N101WS KSBA-KCMA

N101WS :: KSBA-KCMA

FLIGHT INFORMATION

Flight Status: Arrived
Operator: Privately registered:
United States
More flights under this callsign
Pilot: Mark K. (33451)
Aircraft: CESSNA 172 SKYHAWK
(C172)
More flights by this aircraft type
Origin: KSBA Santa Barbara Mun
United States
Destination: KCMA Camarillo
United States
More flights between these airports :: More routes between these airports
Route: KWANG CMA
File this flight plan on PilotEdge
Remarks:
Altitude:
(Current/Filed)
3,000ft
Speed:
(Current/Filed)
105kts
Departed: 15-Feb-21 10:56 PM
Arrived: 15-Feb-21 11:33 PM
Distance/Time
Traveled:
62nm/0:36
Distance/Time
To Go:
Arrived

Flight Plot

Page will automatically refresh every two minutes.


Map Options




Map Legend


Flown Route
Filed Route
Departure Airport
Arrival Airport
Navaid (VOR, NDB)
Fix

Horizontal Profiles

Position Reports

Time Latitude Longitude Heading Altitude Ground
Speed
15-Feb-21 22:45 34.431482 -119.838226 75 14ft 0kts
15-Feb-21 22:46 34.431482 -119.838226 75 14ft 0kts
15-Feb-21 22:47 34.431482 -119.838226 75 14ft 0kts
15-Feb-21 22:48 34.431482 -119.838226 75 14ft 0kts
15-Feb-21 22:49 34.431482 -119.838226 75 14ft 0kts
15-Feb-21 22:50 34.431482 -119.838226 75 14ft 0kts
15-Feb-21 22:51 34.431482 -119.838226 75 14ft 0kts
15-Feb-21 22:52 34.431403 -119.835307 187 13ft 18kts
15-Feb-21 22:53 34.428749 -119.834568 150 10ft 0kts
15-Feb-21 22:54 34.428277 -119.834662 204 10ft 11kts
15-Feb-21 22:55 34.427782 -119.844364 266 298ft 63kts
15-Feb-21 22:56 34.426560 -119.867489 267 1030ft 72kts
15-Feb-21 22:57 34.425437 -119.891676 267 1712ft 71kts
15-Feb-21 22:58 34.423907 -119.914871 267 2394ft 67kts
15-Feb-21 22:59 34.418014 -119.934486 199 3000ft 88kts
15-Feb-21 23:00 34.396235 -119.913741 90 2961ft 105kts
15-Feb-21 23:01 34.399943 -119.878882 72 2951ft 104kts
15-Feb-21 23:02 34.405059 -119.839581 77 2971ft 133kts
15-Feb-21 23:03 34.407782 -119.793964 100 2965ft 138kts
15-Feb-21 23:04 34.394163 -119.750475 113 2971ft 138kts
15-Feb-21 23:05 34.378907 -119.707727 113 2971ft 138kts
15-Feb-21 23:06 34.363656 -119.665083 112 2970ft 138kts
15-Feb-21 23:07 34.353022 -119.635379 112 2970ft 138kts
15-Feb-21 23:08 34.342859 -119.607019 111 2969ft 138kts
15-Feb-21 23:09 34.327636 -119.564579 110 2968ft 137kts
15-Feb-21 23:10 34.312428 -119.522234 109 2967ft 136kts
15-Feb-21 23:11 34.301637 -119.479166 99 2965ft 133kts
15-Feb-21 23:12 34.291944 -119.436218 98 2964ft 131kts
15-Feb-21 23:13 34.282361 -119.393809 98 2963ft 129kts
15-Feb-21 23:14 34.274438 -119.358803 98 2963ft 129kts
15-Feb-21 23:15 34.264984 -119.317109 98 2961ft 128kts
15-Feb-21 23:16 34.255549 -119.275577 98 2961ft 127kts
15-Feb-21 23:17 34.246187 -119.234465 97 2958ft 126kts
15-Feb-21 23:18 34.237147 -119.194881 95 3203ft 115kts
15-Feb-21 23:19 34.228853 -119.158249 94 3695ft 112kts
15-Feb-21 23:20 34.220515 -119.121761 93 4194ft 112kts
15-Feb-21 23:21 34.206993 -119.087769 138 4657ft 128kts
15-Feb-21 23:22 34.175823 -119.065508 140 5156ft 131kts
15-Feb-21 23:23 34.158341 -119.035417 45 5344ft 112kts
15-Feb-21 23:24 34.185003 -119.019265 18 4953ft 103kts
15-Feb-21 23:25 34.210823 -119.006193 19 4957ft 99kts
15-Feb-21 23:26 34.218392 -118.987594 109 4785ft 66kts
15-Feb-21 23:27 34.206701 -118.969096 56 4012ft 53kts
15-Feb-21 23:28 34.213039 -118.978585 273 3228ft 85kts
15-Feb-21 23:29 34.211426 -119.008961 282 2240ft 97kts
15-Feb-21 23:30 34.212493 -119.041128 270 1235ft 90kts
15-Feb-21 23:31 34.213468 -119.070936 273 344ft 83kts
15-Feb-21 23:32 34.213675 -119.088929 261 72ft 5kts
15-Feb-21 23:33 34.213670 -119.089027 266 72ft 0kts
15-Feb-21 23:34 34.219357 -118.493170 258 805ft 0kts
15-Feb-21 23:35 34.219357 -118.493170 258 805ft 0kts
15-Feb-21 23:36 34.219357 -118.493170 258 805ft 0kts
15-Feb-21 23:37 34.219357 -118.493170 258 805ft 0kts
15-Feb-21 23:38 34.219357 -118.493170 258 805ft 0kts
15-Feb-21 23:39 34.218829 -118.492747 99 805ft 9kts
15-Feb-21 23:40 34.218046 -118.491121 173 805ft 20kts
15-Feb-21 23:41 34.195468 -118.488246 171 1339ft 107kts
15-Feb-21 23:42 34.177854 -118.507825 306 1822ft 115kts
15-Feb-21 23:43 34.205614 -118.515214 12 2320ft 111kts
15-Feb-21 23:44 34.229238 -118.524803 271 2812ft 118kts
15-Feb-21 23:45 34.228205 -118.564061 273 3320ft 115kts
15-Feb-21 23:46 34.226880 -118.602432 275 3827ft 113kts

Navigation Log

Ident Type
Flight plan parsing failed, navigation log unavailable